Terminal Aerodrome Forecast
Issued by NWS

Home | Current Version | Previous Version | Text Only | Print | Product List | Glossary On
Versions: 1 2 3 4 5 6 7 8 9 10 11 12 13 14 15 16 17 18 19 20 21 22 23 24 25 26 27 28
658
FTUS42 KKEY 081743
TAFMTH
TAF
KMTH 081743Z 0818/0918 VRB06KT P6SM FEW040
     FM082100 28008KT P6SM FEW040
     FM090400 29013G22KT P6SM BKN040 BKN200
     FM091500 30011G20KT P6SM SCT040 SCT200=

USA.gov is the U.S. government's official web portal to all federal, state and local government web resources and services.